sensor_id;sensor_type;location;lat;lon;timestamp;P1;durP1;ratioP1;P2;durP2;ratioP2
10725;SDS011;5414;59.782;16.378;2023-03-17T00:02:09;4.77;;;2.40;;
10725;SDS011;5414;59.782;16.378;2023-03-17T00:04:35;5.63;;;2.40;;
10725;SDS011;5414;59.782;16.378;2023-03-17T00:07:02;5.90;;;2.73;;
10725;SDS011;5414;59.782;16.378;2023-03-17T00:09:28;4.23;;;2.40;;
10725;SDS011;5414;59.782;16.378;2023-03-17T00:11:54;5.17;;;2.73;;
10725;SDS011;5414;59.782;16.378;2023-03-17T00:14:20;5.83;;;2.53;;
10725;SDS011;5414;59.782;16.378;2023-03-17T00:16:47;4.43;;;2.30;;
10725;SDS011;5414;59.782;16.378;2023-03-17T00:19:18;5.53;;;2.30;;
10725;SDS011;5414;59.782;16.378;2023-03-17T00:21:47;4.97;;;2.07;;
10725;SDS011;5414;59.782;16.378;2023-03-17T00:24:13;3.23;;;2.23;;
10725;SDS011;5414;59.782;16.378;2023-03-17T00:26:39;6.83;;;2.10;;
10725;SDS011;5414;59.782;16.378;2023-03-17T00:29:06;3.57;;;2.10;;
10725;SDS011;5414;59.782;16.378;2023-03-17T00:31:33;7.73;;;2.30;;
10725;SDS011;5414;59.782;16.378;2023-03-17T00:33:59;4.77;;;1.93;;
10725;SDS011;5414;59.782;16.378;2023-03-17T00:36:29;3.97;;;2.03;;
10725;SDS011;5414;59.782;16.378;2023-03-17T00:38:55;4.70;;;2.10;;
10725;SDS011;5414;59.782;16.378;2023-03-17T00:41:22;4.20;;;2.30;;
10725;SDS011;5414;59.782;16.378;2023-03-17T00:43:48;4.93;;;2.20;;
10725;SDS011;5414;59.782;16.378;2023-03-17T00:46:19;5.50;;;2.30;;
10725;SDS011;5414;59.782;16.378;2023-03-17T00:48:46;4.40;;;2.30;;
10725;SDS011;5414;59.782;16.378;2023-03-17T00:51:12;3.43;;;2.17;;
10725;SDS011;5414;59.782;16.378;2023-03-17T00:53:40;3.53;;;1.90;;
10725;SDS011;5414;59.782;16.378;2023-03-17T00:56:13;6.53;;;2.37;;
10725;SDS011;5414;59.782;16.378;2023-03-17T00:58:39;4.20;;;2.03;;
10725;SDS011;5414;59.782;16.378;2023-03-17T01:01:06;3.93;;;2.10;;
10725;SDS011;5414;59.782;16.378;2023-03-17T01:03:32;3.17;;;2.03;;
10725;SDS011;5414;59.782;16.378;2023-03-17T01:05:59;4.43;;;2.40;;
10725;SDS011;5414;59.782;16.378;2023-03-17T01:08:27;5.13;;;2.20;;
10725;SDS011;5414;59.782;16.378;2023-03-17T01:10:54;3.00;;;1.93;;
10725;SDS011;5414;59.782;16.378;2023-03-17T01:13:21;3.83;;;2.13;;
10725;SDS011;5414;59.782;16.378;2023-03-17T01:15:47;4.77;;;2.50;;
10725;SDS011;5414;59.782;16.378;2023-03-17T01:18:15;5.30;;;2.37;;
10725;SDS011;5414;59.782;16.378;2023-03-17T01:20:41;3.43;;;2.13;;
10725;SDS011;5414;59.782;16.378;2023-03-17T01:23:08;3.60;;;2.43;;
10725;SDS011;5414;59.782;16.378;2023-03-17T01:25:35;4.33;;;2.03;;
10725;SDS011;5414;59.782;16.378;2023-03-17T01:28:02;5.20;;;2.30;;
10725;SDS011;5414;59.782;16.378;2023-03-17T01:30:34;6.40;;;2.70;;
10725;SDS011;5414;59.782;16.378;2023-03-17T01:33:03;3.63;;;2.40;;
10725;SDS011;5414;59.782;16.378;2023-03-17T01:35:30;4.60;;;2.10;;
10725;SDS011;5414;59.782;16.378;2023-03-17T01:37:57;4.57;;;2.30;;
10725;SDS011;5414;59.782;16.378;2023-03-17T01:40:25;5.20;;;2.47;;
10725;SDS011;5414;59.782;16.378;2023-03-17T01:42:52;5.07;;;2.33;;
10725;SDS011;5414;59.782;16.378;2023-03-17T01:48:04;4.90;;;2.60;;
10725;SDS011;5414;59.782;16.378;2023-03-17T01:50:30;2.80;;;1.90;;
10725;SDS011;5414;59.782;16.378;2023-03-17T01:52:56;4.83;;;2.43;;
10725;SDS011;5414;59.782;16.378;2023-03-17T01:55:22;2.93;;;2.20;;
10725;SDS011;5414;59.782;16.378;2023-03-17T01:57:48;4.33;;;2.27;;
10725;SDS011;5414;59.782;16.378;2023-03-17T02:00:17;8.87;;;2.90;;
10725;SDS011;5414;59.782;16.378;2023-03-17T02:02:45;8.70;;;2.40;;
10725;SDS011;5414;59.782;16.378;2023-03-17T02:05:13;5.57;;;2.30;;
10725;SDS011;5414;59.782;16.378;2023-03-17T02:07:41;5.20;;;2.37;;
10725;SDS011;5414;59.782;16.378;2023-03-17T02:10:07;5.13;;;2.37;;
10725;SDS011;5414;59.782;16.378;2023-03-17T02:12:34;3.70;;;2.20;;
10725;SDS011;5414;59.782;16.378;2023-03-17T02:15:00;4.83;;;2.30;;
10725;SDS011;5414;59.782;16.378;2023-03-17T02:17:27;5.80;;;2.30;;
10725;SDS011;5414;59.782;16.378;2023-03-17T02:19:54;3.17;;;1.90;;
10725;SDS011;5414;59.782;16.378;2023-03-17T02:22:20;4.30;;;2.30;;
10725;SDS011;5414;59.782;16.378;2023-03-17T02:24:49;4.77;;;2.30;;
10725;SDS011;5414;59.782;16.378;2023-03-17T02:27:23;5.47;;;2.47;;
10725;SDS011;5414;59.782;16.378;2023-03-17T02:29:51;6.97;;;2.23;;
10725;SDS011;5414;59.782;16.378;2023-03-17T02:32:18;4.40;;;2.00;;
10725;SDS011;5414;59.782;16.378;2023-03-17T02:34:44;3.77;;;2.20;;
10725;SDS011;5414;59.782;16.378;2023-03-17T02:37:11;4.10;;;2.30;;
10725;SDS011;5414;59.782;16.378;2023-03-17T02:39:37;5.20;;;2.40;;
10725;SDS011;5414;59.782;16.378;2023-03-17T02:42:03;2.40;;;1.80;;
10725;SDS011;5414;59.782;16.378;2023-03-17T02:44:30;4.73;;;1.97;;
10725;SDS011;5414;59.782;16.378;2023-03-17T02:46:56;4.93;;;2.30;;
10725;SDS011;5414;59.782;16.378;2023-03-17T02:49:23;3.90;;;2.17;;
10725;SDS011;5414;59.782;16.378;2023-03-17T02:51:49;3.23;;;1.93;;
10725;SDS011;5414;59.782;16.378;2023-03-17T02:54:16;3.83;;;2.00;;
10725;SDS011;5414;59.782;16.378;2023-03-17T02:56:42;3.50;;;1.90;;
10725;SDS011;5414;59.782;16.378;2023-03-17T02:59:08;5.50;;;1.70;;
10725;SDS011;5414;59.782;16.378;2023-03-17T03:01:34;3.47;;;2.10;;
10725;SDS011;5414;59.782;16.378;2023-03-17T03:04:02;4.00;;;1.90;;
10725;SDS011;5414;59.782;16.378;2023-03-17T03:06:28;5.53;;;2.33;;
10725;SDS011;5414;59.782;16.378;2023-03-17T03:08:55;5.10;;;2.37;;
10725;SDS011;5414;59.782;16.378;2023-03-17T03:11:21;4.10;;;1.90;;
10725;SDS011;5414;59.782;16.378;2023-03-17T03:13:47;4.50;;;2.00;;
10725;SDS011;5414;59.782;16.378;2023-03-17T03:16:14;3.43;;;1.93;;
10725;SDS011;5414;59.782;16.378;2023-03-17T03:18:40;3.30;;;1.90;;
10725;SDS011;5414;59.782;16.378;2023-03-17T03:21:06;2.60;;;1.70;;
10725;SDS011;5414;59.782;16.378;2023-03-17T03:23:33;4.67;;;2.10;;
10725;SDS011;5414;59.782;16.378;2023-03-17T03:25:59;3.60;;;1.80;;
10725;SDS011;5414;59.782;16.378;2023-03-17T03:28:26;3.40;;;1.97;;
10725;SDS011;5414;59.782;16.378;2023-03-17T03:30:52;4.17;;;1.87;;
10725;SDS011;5414;59.782;16.378;2023-03-17T03:33:18;4.93;;;2.07;;
10725;SDS011;5414;59.782;16.378;2023-03-17T03:35:44;3.83;;;1.77;;
10725;SDS011;5414;59.782;16.378;2023-03-17T03:38:11;3.70;;;2.10;;
10725;SDS011;5414;59.782;16.378;2023-03-17T03:40:37;3.17;;;1.83;;
10725;SDS011;5414;59.782;16.378;2023-03-17T03:43:03;5.77;;;2.23;;
10725;SDS011;5414;59.782;16.378;2023-03-17T03:45:30;2.53;;;1.93;;
10725;SDS011;5414;59.782;16.378;2023-03-17T03:47:57;2.97;;;1.87;;
10725;SDS011;5414;59.782;16.378;2023-03-17T03:50:23;6.73;;;2.17;;
10725;SDS011;5414;59.782;16.378;2023-03-17T03:52:49;3.13;;;1.80;;
10725;SDS011;5414;59.782;16.378;2023-03-17T03:55:17;3.80;;;1.83;;
10725;SDS011;5414;59.782;16.378;2023-03-17T03:57:43;4.83;;;1.90;;
10725;SDS011;5414;59.782;16.378;2023-03-17T04:00:10;5.73;;;2.37;;
10725;SDS011;5414;59.782;16.378;2023-03-17T04:02:38;4.70;;;1.97;;
10725;SDS011;5414;59.782;16.378;2023-03-17T04:05:05;3.80;;;1.90;;
10725;SDS011;5414;59.782;16.378;2023-03-17T04:07:31;5.23;;;1.97;;
10725;SDS011;5414;59.782;16.378;2023-03-17T04:09:57;5.67;;;2.00;;
10725;SDS011;5414;59.782;16.378;2023-03-17T04:12:24;5.00;;;2.30;;
10725;SDS011;5414;59.782;16.378;2023-03-17T04:14:50;4.97;;;2.20;;
10725;SDS011;5414;59.782;16.378;2023-03-17T04:17:16;5.50;;;2.07;;
10725;SDS011;5414;59.782;16.378;2023-03-17T04:19:42;4.37;;;2.00;;
10725;SDS011;5414;59.782;16.378;2023-03-17T04:22:09;6.13;;;2.40;;
10725;SDS011;5414;59.782;16.378;2023-03-17T04:24:35;5.40;;;1.80;;
10725;SDS011;5414;59.782;16.378;2023-03-17T04:27:02;3.07;;;2.00;;
10725;SDS011;5414;59.782;16.378;2023-03-17T04:29:28;4.90;;;2.13;;
10725;SDS011;5414;59.782;16.378;2023-03-17T04:31:54;3.77;;;2.10;;
10725;SDS011;5414;59.782;16.378;2023-03-17T04:34:21;4.20;;;2.00;;
10725;SDS011;5414;59.782;16.378;2023-03-17T04:36:47;3.67;;;2.17;;
10725;SDS011;5414;59.782;16.378;2023-03-17T04:39:14;5.40;;;2.30;;
10725;SDS011;5414;59.782;16.378;2023-03-17T04:41:40;4.23;;;1.90;;
10725;SDS011;5414;59.782;16.378;2023-03-17T04:44:06;6.93;;;2.40;;
10725;SDS011;5414;59.782;16.378;2023-03-17T04:46:32;11.00;;;2.10;;
10725;SDS011;5414;59.782;16.378;2023-03-17T04:48:59;4.63;;;2.37;;
10725;SDS011;5414;59.782;16.378;2023-03-17T04:51:25;5.93;;;2.90;;
10725;SDS011;5414;59.782;16.378;2023-03-17T04:53:51;4.30;;;2.17;;
10725;SDS011;5414;59.782;16.378;2023-03-17T04:56:17;5.37;;;2.30;;
10725;SDS011;5414;59.782;16.378;2023-03-17T04:58:43;4.43;;;2.07;;
10725;SDS011;5414;59.782;16.378;2023-03-17T05:01:09;6.37;;;2.57;;
10725;SDS011;5414;59.782;16.378;2023-03-17T05:03:36;5.60;;;2.50;;
10725;SDS011;5414;59.782;16.378;2023-03-17T05:06:02;4.87;;;2.37;;
10725;SDS011;5414;59.782;16.378;2023-03-17T05:08:28;4.03;;;2.73;;
10725;SDS011;5414;59.782;16.378;2023-03-17T05:10:55;6.67;;;2.50;;
10725;SDS011;5414;59.782;16.378;2023-03-17T05:13:21;5.97;;;2.40;;
10725;SDS011;5414;59.782;16.378;2023-03-17T05:15:48;5.17;;;2.53;;
10725;SDS011;5414;59.782;16.378;2023-03-17T05:18:14;4.17;;;2.37;;
10725;SDS011;5414;59.782;16.378;2023-03-17T05:20:40;4.60;;;2.60;;
10725;SDS011;5414;59.782;16.378;2023-03-17T05:23:06;5.03;;;2.60;;
10725;SDS011;5414;59.782;16.378;2023-03-17T05:25:32;5.80;;;2.30;;
10725;SDS011;5414;59.782;16.378;2023-03-17T05:27:59;8.27;;;2.70;;
10725;SDS011;5414;59.782;16.378;2023-03-17T05:30:25;5.33;;;2.60;;
10725;SDS011;5414;59.782;16.378;2023-03-17T05:32:52;5.17;;;2.50;;
10725;SDS011;5414;59.782;16.378;2023-03-17T05:35:18;4.33;;;1.90;;
10725;SDS011;5414;59.782;16.378;2023-03-17T05:37:44;4.37;;;2.53;;
10725;SDS011;5414;59.782;16.378;2023-03-17T05:40:11;4.80;;;2.10;;
10725;SDS011;5414;59.782;16.378;2023-03-17T05:42:38;5.37;;;2.40;;
10725;SDS011;5414;59.782;16.378;2023-03-17T05:45:05;4.30;;;2.20;;
10725;SDS011;5414;59.782;16.378;2023-03-17T05:47:32;4.33;;;2.40;;
10725;SDS011;5414;59.782;16.378;2023-03-17T05:49:58;4.03;;;2.27;;
10725;SDS011;5414;59.782;16.378;2023-03-17T05:52:25;6.50;;;2.13;;
10725;SDS011;5414;59.782;16.378;2023-03-17T05:54:52;6.00;;;2.43;;
10725;SDS011;5414;59.782;16.378;2023-03-17T05:57:18;5.90;;;2.33;;
10725;SDS011;5414;59.782;16.378;2023-03-17T05:59:44;5.77;;;2.10;;
10725;SDS011;5414;59.782;16.378;2023-03-17T06:02:11;5.03;;;2.27;;
10725;SDS011;5414;59.782;16.378;2023-03-17T06:04:38;5.30;;;2.40;;
10725;SDS011;5414;59.782;16.378;2023-03-17T06:07:05;3.43;;;2.10;;
10725;SDS011;5414;59.782;16.378;2023-03-17T06:09:31;4.33;;;2.07;;
10725;SDS011;5414;59.782;16.378;2023-03-17T06:11:58;3.67;;;2.10;;
10725;SDS011;5414;59.782;16.378;2023-03-17T06:14:24;3.07;;;2.07;;
10725;SDS011;5414;59.782;16.378;2023-03-17T06:16:50;3.53;;;2.40;;
10725;SDS011;5414;59.782;16.378;2023-03-17T06:19:17;3.07;;;2.10;;
10725;SDS011;5414;59.782;16.378;2023-03-17T06:21:44;4.70;;;2.40;;
10725;SDS011;5414;59.782;16.378;2023-03-17T06:24:10;4.83;;;1.90;;
10725;SDS011;5414;59.782;16.378;2023-03-17T06:26:36;3.57;;;1.80;;
10725;SDS011;5414;59.782;16.378;2023-03-17T06:29:03;5.60;;;2.30;;
10725;SDS011;5414;59.782;16.378;2023-03-17T06:31:29;5.47;;;2.10;;
10725;SDS011;5414;59.782;16.378;2023-03-17T06:33:55;4.63;;;2.00;;
10725;SDS011;5414;59.782;16.378;2023-03-17T06:36:21;3.43;;;1.93;;
10725;SDS011;5414;59.782;16.378;2023-03-17T06:38:47;5.73;;;2.00;;
10725;SDS011;5414;59.782;16.378;2023-03-17T06:41:14;4.77;;;2.20;;
10725;SDS011;5414;59.782;16.378;2023-03-17T06:43:40;6.60;;;2.10;;
10725;SDS011;5414;59.782;16.378;2023-03-17T06:46:07;3.47;;;2.30;;
10725;SDS011;5414;59.782;16.378;2023-03-17T06:48:33;4.13;;;2.60;;
10725;SDS011;5414;59.782;16.378;2023-03-17T06:50:59;3.53;;;2.00;;
10725;SDS011;5414;59.782;16.378;2023-03-17T06:53:25;6.50;;;1.90;;
10725;SDS011;5414;59.782;16.378;2023-03-17T06:55:52;3.90;;;1.90;;
10725;SDS011;5414;59.782;16.378;2023-03-17T06:58:18;5.03;;;1.77;;
10725;SDS011;5414;59.782;16.378;2023-03-17T07:00:44;3.67;;;2.30;;
10725;SDS011;5414;59.782;16.378;2023-03-17T07:03:13;2.70;;;1.50;;
10725;SDS011;5414;59.782;16.378;2023-03-17T07:05:39;3.63;;;2.10;;
10725;SDS011;5414;59.782;16.378;2023-03-17T07:08:06;4.00;;;1.87;;
10725;SDS011;5414;59.782;16.378;2023-03-17T07:10:32;4.97;;;1.80;;
10725;SDS011;5414;59.782;16.378;2023-03-17T07:12:58;3.43;;;1.80;;
10725;SDS011;5414;59.782;16.378;2023-03-17T07:15:24;5.43;;;2.10;;
10725;SDS011;5414;59.782;16.378;2023-03-17T07:17:50;5.93;;;1.93;;
10725;SDS011;5414;59.782;16.378;2023-03-17T07:20:16;4.30;;;2.23;;
10725;SDS011;5414;59.782;16.378;2023-03-17T07:22:42;5.10;;;2.37;;
10725;SDS011;5414;59.782;16.378;2023-03-17T07:25:08;4.53;;;2.17;;
10725;SDS011;5414;59.782;16.378;2023-03-17T07:27:35;3.57;;;2.03;;
10725;SDS011;5414;59.782;16.378;2023-03-17T07:30:01;4.87;;;1.90;;
10725;SDS011;5414;59.782;16.378;2023-03-17T07:32:29;4.90;;;2.00;;
10725;SDS011;5414;59.782;16.378;2023-03-17T07:34:55;5.57;;;2.30;;
10725;SDS011;5414;59.782;16.378;2023-03-17T07:37:22;5.60;;;2.10;;
10725;SDS011;5414;59.782;16.378;2023-03-17T07:39:48;2.80;;;1.90;;
10725;SDS011;5414;59.782;16.378;2023-03-17T07:42:15;4.13;;;2.07;;
10725;SDS011;5414;59.782;16.378;2023-03-17T07:44:41;5.47;;;1.93;;
10725;SDS011;5414;59.782;16.378;2023-03-17T07:47:08;5.37;;;2.00;;
10725;SDS011;5414;59.782;16.378;2023-03-17T07:49:35;5.93;;;2.10;;
10725;SDS011;5414;59.782;16.378;2023-03-17T07:52:01;3.23;;;2.03;;
10725;SDS011;5414;59.782;16.378;2023-03-17T07:54:27;4.47;;;2.20;;
10725;SDS011;5414;59.782;16.378;2023-03-17T07:56:53;3.03;;;1.90;;
10725;SDS011;5414;59.782;16.378;2023-03-17T07:59:20;3.87;;;1.97;;
10725;SDS011;5414;59.782;16.378;2023-03-17T08:01:46;4.90;;;2.00;;
10725;SDS011;5414;59.782;16.378;2023-03-17T08:04:12;4.30;;;1.83;;
10725;SDS011;5414;59.782;16.378;2023-03-17T08:06:39;5.50;;;1.77;;
10725;SDS011;5414;59.782;16.378;2023-03-17T08:09:11;3.60;;;1.97;;
10725;SDS011;5414;59.782;16.378;2023-03-17T08:11:37;5.20;;;1.87;;
10725;SDS011;5414;59.782;16.378;2023-03-17T08:14:04;4.80;;;1.80;;
10725;SDS011;5414;59.782;16.378;2023-03-17T08:16:30;3.33;;;1.80;;
10725;SDS011;5414;59.782;16.378;2023-03-17T08:18:56;7.37;;;2.27;;
10725;SDS011;5414;59.782;16.378;2023-03-17T08:21:23;5.57;;;1.67;;
10725;SDS011;5414;59.782;16.378;2023-03-17T08:23:51;3.40;;;1.83;;
10725;SDS011;5414;59.782;16.378;2023-03-17T08:26:17;4.20;;;2.07;;
10725;SDS011;5414;59.782;16.378;2023-03-17T08:28:43;3.93;;;1.80;;
10725;SDS011;5414;59.782;16.378;2023-03-17T08:31:10;4.87;;;1.70;;
10725;SDS011;5414;59.782;16.378;2023-03-17T08:33:38;3.83;;;1.90;;
10725;SDS011;5414;59.782;16.378;2023-03-17T08:36:05;5.53;;;1.93;;
10725;SDS011;5414;59.782;16.378;2023-03-17T08:38:33;5.97;;;1.80;;
10725;SDS011;5414;59.782;16.378;2023-03-17T08:41:00;4.33;;;1.63;;
10725;SDS011;5414;59.782;16.378;2023-03-17T08:43:26;5.17;;;1.70;;
10725;SDS011;5414;59.782;16.378;2023-03-17T08:45:58;3.30;;;1.53;;
10725;SDS011;5414;59.782;16.378;2023-03-17T08:48:25;6.03;;;1.70;;
10725;SDS011;5414;59.782;16.378;2023-03-17T08:50:51;3.53;;;1.40;;
10725;SDS011;5414;59.782;16.378;2023-03-17T08:53:17;2.70;;;1.63;;
10725;SDS011;5414;59.782;16.378;2023-03-17T08:55:44;4.30;;;1.77;;
10725;SDS011;5414;59.782;16.378;2023-03-17T08:58:10;4.60;;;1.93;;
10725;SDS011;5414;59.782;16.378;2023-03-17T09:00:37;4.63;;;1.53;;
10725;SDS011;5414;59.782;16.378;2023-03-17T09:03:04;4.07;;;2.17;;
10725;SDS011;5414;59.782;16.378;2023-03-17T09:05:30;4.27;;;1.60;;
10725;SDS011;5414;59.782;16.378;2023-03-17T09:07:57;2.77;;;1.33;;
10725;SDS011;5414;59.782;16.378;2023-03-17T09:10:23;3.83;;;1.50;;
10725;SDS011;5414;59.782;16.378;2023-03-17T09:12:50;2.23;;;1.27;;
10725;SDS011;5414;59.782;16.378;2023-03-17T09:15:17;3.07;;;1.40;;
10725;SDS011;5414;59.782;16.378;2023-03-17T09:17:43;3.43;;;1.50;;
10725;SDS011;5414;59.782;16.378;2023-03-17T09:20:10;2.33;;;1.50;;
10725;SDS011;5414;59.782;16.378;2023-03-17T09:22:36;3.33;;;1.20;;
10725;SDS011;5414;59.782;16.378;2023-03-17T09:25:02;4.77;;;1.70;;
10725;SDS011;5414;59.782;16.378;2023-03-17T09:27:28;4.33;;;1.07;;
10725;SDS011;5414;59.782;16.378;2023-03-17T09:29:54;2.47;;;1.27;;
10725;SDS011;5414;59.782;16.378;2023-03-17T09:32:20;3.93;;;1.53;;
10725;SDS011;5414;59.782;16.378;2023-03-17T09:34:47;3.70;;;1.30;;
10725;SDS011;5414;59.782;16.378;2023-03-17T09:37:13;4.97;;;1.50;;
10725;SDS011;5414;59.782;16.378;2023-03-17T09:39:39;4.93;;;1.50;;
10725;SDS011;5414;59.782;16.378;2023-03-17T09:42:23;4.90;;;1.50;;
10725;SDS011;5414;59.782;16.378;2023-03-17T09:45:00;4.20;;;1.70;;
10725;SDS011;5414;59.782;16.378;2023-03-17T09:49:57;3.10;;;1.30;;
10725;SDS011;5414;59.782;16.378;2023-03-17T09:52:28;4.73;;;1.40;;
10725;SDS011;5414;59.782;16.378;2023-03-17T09:54:55;2.20;;;1.10;;
10725;SDS011;5414;59.782;16.378;2023-03-17T09:57:42;5.37;;;1.50;;
10725;SDS011;5414;59.782;16.378;2023-03-17T10:00:15;7.40;;;1.70;;
10725;SDS011;5414;59.782;16.378;2023-03-17T10:02:42;3.57;;;1.33;;
10725;SDS011;5414;59.782;16.378;2023-03-17T10:07:39;3.70;;;1.40;;
10725;SDS011;5414;59.782;16.378;2023-03-17T10:10:22;3.57;;;1.23;;
10725;SDS011;5414;59.782;16.378;2023-03-17T10:15:23;4.23;;;1.30;;
10725;SDS011;5414;59.782;16.378;2023-03-17T10:17:50;2.33;;;1.10;;
10725;SDS011;5414;59.782;16.378;2023-03-17T10:22:56;4.10;;;1.40;;
10725;SDS011;5414;59.782;16.378;2023-03-17T10:25:27;3.23;;;1.10;;
10725;SDS011;5414;59.782;16.378;2023-03-17T10:30:30;3.20;;;1.30;;
10725;SDS011;5414;59.782;16.378;2023-03-17T10:33:00;2.87;;;1.40;;
10725;SDS011;5414;59.782;16.378;2023-03-17T10:35:28;5.87;;;1.70;;
10725;SDS011;5414;59.782;16.378;2023-03-17T10:37:54;1.67;;;1.13;;
10725;SDS011;5414;59.782;16.378;2023-03-17T10:40:24;3.83;;;1.63;;
10725;SDS011;5414;59.782;16.378;2023-03-17T10:42:54;3.60;;;1.60;;
10725;SDS011;5414;59.782;16.378;2023-03-17T10:45:26;2.90;;;1.40;;
10725;SDS011;5414;59.782;16.378;2023-03-17T10:47:54;3.43;;;1.43;;
10725;SDS011;5414;59.782;16.378;2023-03-17T10:52:51;3.00;;;1.50;;
10725;SDS011;5414;59.782;16.378;2023-03-17T10:55:19;2.87;;;1.40;;
10725;SDS011;5414;59.782;16.378;2023-03-17T10:58:05;5.10;;;1.50;;
10725;SDS011;5414;59.782;16.378;2023-03-17T11:00:33;3.10;;;1.30;;
10725;SDS011;5414;59.782;16.378;2023-03-17T11:03:09;3.80;;;1.37;;
10725;SDS011;5414;59.782;16.378;2023-03-17T11:05:36;6.60;;;1.60;;
10725;SDS011;5414;59.782;16.378;2023-03-17T11:08:37;3.60;;;1.50;;
10725;SDS011;5414;59.782;16.378;2023-03-17T11:10:55;3.03;;;1.33;;
10725;SDS011;5414;59.782;16.378;2023-03-17T11:13:21;2.90;;;1.30;;
10725;SDS011;5414;59.782;16.378;2023-03-17T11:15:54;3.47;;;1.50;;
10725;SDS011;5414;59.782;16.378;2023-03-17T11:18:24;3.37;;;1.20;;
10725;SDS011;5414;59.782;16.378;2023-03-17T11:21:02;3.13;;;1.20;;
10725;SDS011;5414;59.782;16.378;2023-03-17T11:23:36;3.10;;;1.40;;
10725;SDS011;5414;59.782;16.378;2023-03-17T11:28:34;5.17;;;1.43;;
10725;SDS011;5414;59.782;16.378;2023-03-17T11:31:07;3.63;;;1.30;;
10725;SDS011;5414;59.782;16.378;2023-03-17T11:33:53;3.07;;;1.57;;
10725;SDS011;5414;59.782;16.378;2023-03-17T11:47:04;3.90;;;1.30;;
10725;SDS011;5414;59.782;16.378;2023-03-17T11:57:30;3.07;;;1.47;;
10725;SDS011;5414;59.782;16.378;2023-03-17T12:00:00;5.73;;;1.70;;
10725;SDS011;5414;59.782;16.378;2023-03-17T12:05:11;5.53;;;1.60;;
10725;SDS011;5414;59.782;16.378;2023-03-17T12:07:44;2.77;;;1.10;;
10725;SDS011;5414;59.782;16.378;2023-03-17T12:10:15;3.70;;;1.43;;
10725;SDS011;5414;59.782;16.378;2023-03-17T12:12:46;4.47;;;1.37;;
10725;SDS011;5414;59.782;16.378;2023-03-17T12:15:17;2.67;;;1.50;;
10725;SDS011;5414;59.782;16.378;2023-03-17T12:17:50;3.47;;;1.57;;
10725;SDS011;5414;59.782;16.378;2023-03-17T12:20:24;4.03;;;1.27;;
10725;SDS011;5414;59.782;16.378;2023-03-17T12:23:00;2.43;;;1.10;;
10725;SDS011;5414;59.782;16.378;2023-03-17T12:28:10;3.10;;;1.30;;
10725;SDS011;5414;59.782;16.378;2023-03-17T12:33:10;3.73;;;1.60;;
10725;SDS011;5414;59.782;16.378;2023-03-17T12:35:40;1.90;;;1.27;;
10725;SDS011;5414;59.782;16.378;2023-03-17T12:38:09;3.17;;;1.40;;
10725;SDS011;5414;59.782;16.378;2023-03-17T12:43:20;4.60;;;1.60;;
10725;SDS011;5414;59.782;16.378;2023-03-17T12:51:11;6.17;;;1.50;;
10725;SDS011;5414;59.782;16.378;2023-03-17T12:53:41;3.80;;;1.40;;
10725;SDS011;5414;59.782;16.378;2023-03-17T12:56:16;5.03;;;1.60;;
10725;SDS011;5414;59.782;16.378;2023-03-17T12:58:44;3.93;;;1.30;;
10725;SDS011;5414;59.782;16.378;2023-03-17T13:06:25;5.20;;;1.70;;
10725;SDS011;5414;59.782;16.378;2023-03-17T13:08:55;4.27;;;1.67;;
10725;SDS011;5414;59.782;16.378;2023-03-17T13:11:28;3.83;;;1.57;;
10725;SDS011;5414;59.782;16.378;2023-03-17T13:14:24;3.47;;;1.40;;
10725;SDS011;5414;59.782;16.378;2023-03-17T13:16:51;4.93;;;1.70;;
10725;SDS011;5414;59.782;16.378;2023-03-17T13:19:22;5.73;;;1.77;;
10725;SDS011;5414;59.782;16.378;2023-03-17T13:21:56;4.93;;;2.00;;
10725;SDS011;5414;59.782;16.378;2023-03-17T13:27:09;6.20;;;1.90;;
10725;SDS011;5414;59.782;16.378;2023-03-17T13:34:44;4.43;;;1.60;;
10725;SDS011;5414;59.782;16.378;2023-03-17T13:45:18;3.10;;;1.50;;
10725;SDS011;5414;59.782;16.378;2023-03-17T13:47:46;3.37;;;1.70;;
10725;SDS011;5414;59.782;16.378;2023-03-17T13:50:13;3.40;;;1.97;;
10725;SDS011;5414;59.782;16.378;2023-03-17T13:57:42;3.83;;;1.63;;
10725;SDS011;5414;59.782;16.378;2023-03-17T14:02:34;6.70;;;1.73;;
10725;SDS011;5414;59.782;16.378;2023-03-17T14:05:03;4.57;;;1.80;;
10725;SDS011;5414;59.782;16.378;2023-03-17T14:08:13;4.70;;;1.70;;
10725;SDS011;5414;59.782;16.378;2023-03-17T14:10:21;4.33;;;2.00;;
10725;SDS011;5414;59.782;16.378;2023-03-17T14:17:47;5.17;;;1.80;;
10725;SDS011;5414;59.782;16.378;2023-03-17T14:22:42;5.10;;;1.80;;
10725;SDS011;5414;59.782;16.378;2023-03-17T14:25:13;7.33;;;2.00;;
10725;SDS011;5414;59.782;16.378;2023-03-17T14:27:40;6.80;;;1.90;;
10725;SDS011;5414;59.782;16.378;2023-03-17T14:30:08;4.60;;;2.13;;
10725;SDS011;5414;59.782;16.378;2023-03-17T14:32:44;7.13;;;2.37;;
10725;SDS011;5414;59.782;16.378;2023-03-17T14:35:11;5.80;;;2.10;;
10725;SDS011;5414;59.782;16.378;2023-03-17T14:37:37;4.87;;;1.87;;
10725;SDS011;5414;59.782;16.378;2023-03-17T14:40:16;5.37;;;2.10;;
10725;SDS011;5414;59.782;16.378;2023-03-17T14:42:43;7.57;;;2.40;;
10725;SDS011;5414;59.782;16.378;2023-03-17T14:45:20;6.37;;;2.30;;
10725;SDS011;5414;59.782;16.378;2023-03-17T14:47:46;7.60;;;2.60;;
10725;SDS011;5414;59.782;16.378;2023-03-17T14:50:19;4.37;;;2.13;;
10725;SDS011;5414;59.782;16.378;2023-03-17T14:52:47;4.43;;;2.20;;
10725;SDS011;5414;59.782;16.378;2023-03-17T14:55:14;3.60;;;1.90;;
10725;SDS011;5414;59.782;16.378;2023-03-17T14:57:41;3.10;;;2.07;;
10725;SDS011;5414;59.782;16.378;2023-03-17T15:02:37;6.00;;;2.20;;
10725;SDS011;5414;59.782;16.378;2023-03-17T15:07:38;4.30;;;1.90;;
10725;SDS011;5414;59.782;16.378;2023-03-17T15:10:05;8.73;;;2.63;;
10725;SDS011;5414;59.782;16.378;2023-03-17T15:12:32;5.50;;;2.47;;
10725;SDS011;5414;59.782;16.378;2023-03-17T15:17:42;6.07;;;2.50;;
10725;SDS011;5414;59.782;16.378;2023-03-17T15:20:15;5.13;;;2.30;;
10725;SDS011;5414;59.782;16.378;2023-03-17T15:22:43;5.10;;;2.23;;
10725;SDS011;5414;59.782;16.378;2023-03-17T15:25:22;5.47;;;2.50;;
10725;SDS011;5414;59.782;16.378;2023-03-17T15:27:48;4.93;;;2.00;;
10725;SDS011;5414;59.782;16.378;2023-03-17T15:30:15;4.37;;;2.67;;
10725;SDS011;5414;59.782;16.378;2023-03-17T15:32:41;7.33;;;2.67;;
10725;SDS011;5414;59.782;16.378;2023-03-17T15:35:10;3.83;;;2.17;;
10725;SDS011;5414;59.782;16.378;2023-03-17T15:37:36;6.57;;;2.53;;
10725;SDS011;5414;59.782;16.378;2023-03-17T15:40:02;7.43;;;3.00;;
10725;SDS011;5414;59.782;16.378;2023-03-17T15:42:33;4.90;;;2.20;;
10725;SDS011;5414;59.782;16.378;2023-03-17T15:45:00;6.27;;;2.60;;
10725;SDS011;5414;59.782;16.378;2023-03-17T15:47:30;6.80;;;2.67;;
10725;SDS011;5414;59.782;16.378;2023-03-17T15:50:42;7.77;;;2.80;;
10725;SDS011;5414;59.782;16.378;2023-03-17T15:52:43;4.43;;;2.53;;
10725;SDS011;5414;59.782;16.378;2023-03-17T15:55:14;7.97;;;2.77;;
10725;SDS011;5414;59.782;16.378;2023-03-17T15:57:40;6.07;;;2.40;;
10725;SDS011;5414;59.782;16.378;2023-03-17T16:00:06;5.57;;;3.07;;
10725;SDS011;5414;59.782;16.378;2023-03-17T16:02:33;4.93;;;2.67;;
10725;SDS011;5414;59.782;16.378;2023-03-17T16:05:03;8.43;;;3.27;;
10725;SDS011;5414;59.782;16.378;2023-03-17T16:07:32;5.10;;;2.40;;
10725;SDS011;5414;59.782;16.378;2023-03-17T16:09:58;6.80;;;2.87;;
10725;SDS011;5414;59.782;16.378;2023-03-17T16:12:24;6.43;;;2.93;;
10725;SDS011;5414;59.782;16.378;2023-03-17T16:14:50;6.97;;;3.20;;
10725;SDS011;5414;59.782;16.378;2023-03-17T16:17:22;8.17;;;3.00;;
10725;SDS011;5414;59.782;16.378;2023-03-17T16:19:50;7.77;;;3.40;;
10725;SDS011;5414;59.782;16.378;2023-03-17T16:22:36;8.60;;;3.00;;
10725;SDS011;5414;59.782;16.378;2023-03-17T16:25:05;7.50;;;3.37;;
10725;SDS011;5414;59.782;16.378;2023-03-17T16:27:31;6.40;;;3.33;;
10725;SDS011;5414;59.782;16.378;2023-03-17T16:29:57;7.20;;;3.17;;
10725;SDS011;5414;59.782;16.378;2023-03-17T16:32:23;7.00;;;3.33;;